createdAt,value
2023-04-07T00:00:08.763Z,98363.13
2023-04-07T00:02:59.987Z,98351.84
2023-04-07T00:05:45.209Z,98355.16
2023-04-07T00:08:30.289Z,98355.34
2023-04-07T00:11:15.886Z,98352.06
2023-04-07T00:14:01.229Z,98350.25
2023-04-07T00:16:46.438Z,98346.38
2023-04-07T00:19:31.730Z,98343.53
2023-04-07T00:22:17.370Z,98344.47
2023-04-07T00:25:02.611Z,98338.84
2023-04-07T00:27:47.962Z,98340.78
2023-04-07T00:30:33.290Z,98345.28
2023-04-07T00:33:18.739Z,98342.44
2023-04-07T00:36:04.599Z,98344.66
2023-04-07T00:38:49.846Z,98348.25
2023-04-07T00:41:35.438Z,98344.25
2023-04-07T00:44:20.806Z,98340.72
2023-04-07T00:47:06.185Z,98339.31
2023-04-07T00:49:52.099Z,98340.97
2023-04-07T00:52:37.823Z,98336.72
2023-04-07T00:55:23.635Z,98274.50
2023-04-07T00:58:09.107Z,98338.66
2023-04-07T01:01:33.318Z,98334.53
2023-04-07T01:04:43.180Z,98330.81
2023-04-07T01:07:35.452Z,98321.50
2023-04-07T01:10:43.799Z,98326.41
2023-04-07T01:13:43.066Z,98300.53
2023-04-07T01:16:46.738Z,98305.72
2023-04-07T01:19:48.733Z,98281.06
2023-04-07T01:22:41.672Z,98321.91
2023-04-07T01:25:32.936Z,98318.19
2023-04-07T01:28:48.672Z,98316.41
2023-04-07T01:31:34.828Z,98320.69
2023-04-07T01:34:22.273Z,98321.50
2023-04-07T01:37:08.776Z,98315.88
2023-04-07T01:39:54.108Z,98309.84
2023-04-07T01:42:40.922Z,98313.13
2023-04-07T01:45:27.509Z,98311.50
2023-04-07T01:48:13.704Z,98306.97
2023-04-07T01:50:59.745Z,98303.16
2023-04-07T01:53:46.897Z,98311.13
2023-04-07T01:56:32.267Z,98305.63
2023-04-07T01:59:19.885Z,98307.13
2023-04-07T02:02:05.921Z,98305.88
2023-04-07T02:05:05.633Z,98302.59
2023-04-07T02:08:05.875Z,98309.31
2023-04-07T02:10:55.444Z,98309.59
2023-04-07T02:13:42.299Z,98309.22
2023-04-07T02:16:32.068Z,98309.94
2023-04-07T02:19:19.582Z,98314.72
2023-04-07T02:22:05.944Z,98304.81
2023-04-07T02:24:51.290Z,98255.13
2023-04-07T02:27:36.483Z,98283.34
2023-04-07T02:30:22.217Z,98285.09
2023-04-07T02:33:09.617Z,98304.75
2023-04-07T02:35:54.581Z,98293.03
2023-04-07T02:38:40.141Z,98298.25
2023-04-07T02:41:25.384Z,98302.34
2023-04-07T02:44:11.443Z,98302.25
2023-04-07T02:46:56.601Z,98306.50
2023-04-07T02:49:42.316Z,98259.88
2023-04-07T02:52:27.858Z,98306.22
2023-04-07T02:55:13.554Z,98307.84
2023-04-07T02:57:59.205Z,98312.94
2023-04-07T03:00:54.080Z,98302.25
2023-04-07T03:03:42.177Z,98301.44
2023-04-07T03:06:34.956Z,98260.72
2023-04-07T03:09:27.905Z,98292.53
2023-04-07T03:12:14.820Z,98284.59
2023-04-07T03:15:00.754Z,98289.94
2023-04-07T03:17:46.629Z,98282.28
2023-04-07T03:20:31.841Z,98290.06
2023-04-07T03:23:22.982Z,98282.56
2023-04-07T03:26:09.007Z,98270.19
2023-04-07T03:28:56.314Z,98290.91
2023-04-07T03:31:42.060Z,98235.19
2023-04-07T03:34:27.467Z,98287.47
2023-04-07T03:37:15.817Z,98281.53
2023-04-07T03:40:01.098Z,98290.56
2023-04-07T03:42:51.373Z,98283.47
2023-04-07T03:45:36.393Z,98285.94
2023-04-07T03:48:21.648Z,98265.38
2023-04-07T03:51:17.521Z,98290.56
2023-04-07T03:54:05.346Z,98284.66
2023-04-07T03:56:56.314Z,98283.50
2023-04-07T03:59:41.725Z,98263.91
2023-04-07T04:02:27.116Z,98261.88
2023-04-07T04:05:14.069Z,98296.22
2023-04-07T04:07:59.406Z,98282.06
2023-04-07T04:10:46.207Z,98285.88
2023-04-07T04:13:31.438Z,98282.75
2023-04-07T04:16:21.651Z,98279.88
2023-04-07T04:19:09.495Z,98271.94
2023-04-07T04:21:55.005Z,98273.34
2023-04-07T04:24:40.673Z,98278.72
2023-04-07T04:27:26.189Z,98272.72
2023-04-07T04:30:19.047Z,98273.28
2023-04-07T04:33:09.538Z,98272.22
2023-04-07T04:36:00.850Z,98277.78
2023-04-07T04:38:46.327Z,98275.16
2023-04-07T04:41:35.136Z,98278.72
2023-04-07T04:44:20.939Z,98282.97
2023-04-07T04:47:06.199Z,98289.63
2023-04-07T04:49:52.203Z,98286.09
2023-04-07T04:52:38.666Z,98290.16
2023-04-07T04:55:26.081Z,98289.94
2023-04-07T04:58:13.305Z,98288.16
2023-04-07T05:01:05.488Z,98282.00
2023-04-07T05:03:59.045Z,98291.19
2023-04-07T05:06:47.487Z,98255.81
2023-04-07T05:09:36.402Z,98297.59
2023-04-07T05:12:22.551Z,98294.31
2023-04-07T05:15:14.535Z,98294.19
2023-04-07T05:18:00.259Z,98287.19
2023-04-07T05:20:49.163Z,98291.03
2023-04-07T05:23:35.890Z,98294.84
2023-04-07T05:26:22.537Z,98298.41
2023-04-07T05:29:09.279Z,98300.31
2023-04-07T05:31:54.501Z,98305.78
2023-04-07T05:34:41.642Z,98283.88
2023-04-07T05:37:27.775Z,98295.09
2023-04-07T05:40:13.256Z,98293.97
2023-04-07T05:42:58.750Z,98330.97
2023-04-07T05:45:46.057Z,98304.94
2023-04-07T05:48:31.727Z,98307.91
2023-04-07T05:51:17.466Z,98302.75
2023-04-07T05:54:03.583Z,98305.22
2023-04-07T05:56:49.481Z,98301.47
2023-04-07T05:59:35.962Z,98296.63
2023-04-07T06:02:21.161Z,98316.75
2023-04-07T06:05:07.464Z,98311.31
2023-04-07T06:07:52.906Z,98310.84
2023-04-07T06:10:38.581Z,98315.44
2023-04-07T06:13:24.437Z,98321.22
2023-04-07T06:16:09.956Z,98321.75
2023-04-07T06:18:56.022Z,98324.09
2023-04-07T06:21:41.828Z,98260.69
2023-04-07T06:24:27.231Z,98259.16
2023-04-07T06:27:13.594Z,98272.84
2023-04-07T06:29:58.941Z,98316.00
2023-04-07T06:32:44.634Z,98321.31
2023-04-07T06:35:30.214Z,98318.47
2023-04-07T06:38:15.446Z,98234.44
2023-04-07T06:41:00.592Z,98314.38
2023-04-07T06:43:48.134Z,98316.50
2023-04-07T06:46:33.748Z,98309.25
2023-04-07T06:49:21.735Z,98315.00
2023-04-07T06:52:07.145Z,98319.22
2023-04-07T06:54:52.459Z,98319.59
2023-04-07T06:57:37.680Z,98314.47
2023-04-07T07:00:23.516Z,98314.81
2023-04-07T07:03:08.952Z,98327.03
2023-04-07T07:05:55.488Z,98319.19
2023-04-07T07:08:40.735Z,98315.41
2023-04-07T07:11:25.801Z,98287.09
2023-04-07T07:14:11.104Z,98327.16
2023-04-07T07:16:56.572Z,98283.91
2023-04-07T07:19:41.733Z,98299.84
2023-04-07T07:22:26.952Z,98314.25
2023-04-07T07:25:12.501Z,98329.69
2023-04-07T07:27:58.059Z,98319.09
2023-04-07T07:30:43.141Z,98313.41
2023-04-07T07:33:28.736Z,98312.44
2023-04-07T07:36:14.421Z,98320.28
2023-04-07T07:38:59.528Z,98285.09
2023-04-07T07:41:44.778Z,98317.81
2023-04-07T07:44:32.447Z,98311.50
2023-04-07T07:47:17.850Z,98321.41
2023-04-07T07:50:04.813Z,98320.06
2023-04-07T07:52:50.271Z,98327.94
2023-04-07T07:55:35.470Z,98319.81
2023-04-07T07:58:20.960Z,98314.63
2023-04-07T08:01:06.495Z,98320.84
2023-04-07T08:03:51.981Z,98324.31
2023-04-07T08:06:38.623Z,98322.81
2023-04-07T08:09:24.102Z,98324.31
2023-04-07T08:12:09.631Z,98330.72
2023-04-07T08:14:55.179Z,98318.03
2023-04-07T08:17:40.457Z,98322.66
2023-04-07T08:20:27.218Z,98327.94
2023-04-07T08:23:13.246Z,98324.97
2023-04-07T08:25:58.681Z,98326.03
2023-04-07T08:28:43.945Z,98322.66
2023-04-07T08:31:29.140Z,98332.34
2023-04-07T08:34:14.282Z,98329.06
2023-04-07T08:36:59.651Z,98328.13
2023-04-07T08:39:44.855Z,98328.88
2023-04-07T08:42:32.154Z,98303.75
2023-04-07T08:45:18.215Z,98325.00
2023-04-07T08:48:08.151Z,98288.81
2023-04-07T08:50:54.623Z,98327.16
2023-04-07T08:53:51.292Z,98322.66
2023-04-07T08:56:40.800Z,98314.44
2023-04-07T08:59:27.321Z,98312.59
2023-04-07T09:02:13.331Z,98320.66
2023-04-07T09:04:59.202Z,98293.72
2023-04-07T09:07:44.747Z,98320.34
2023-04-07T09:10:30.544Z,98327.47
2023-04-07T09:13:16.048Z,98324.03
2023-04-07T09:16:02.653Z,98325.50
2023-04-07T09:18:48.377Z,98313.13
2023-04-07T09:22:06.317Z,98325.94
2023-04-07T09:24:51.643Z,98321.47
2023-04-07T09:27:36.946Z,98329.03
2023-04-07T09:30:22.796Z,98315.59
2023-04-07T09:33:08.824Z,98327.22
2023-04-07T09:35:54.804Z,98318.94
2023-04-07T09:38:41.823Z,98317.84
2023-04-07T09:41:27.822Z,98317.81
2023-04-07T09:44:13.434Z,98326.66
2023-04-07T09:46:59.251Z,98291.91
2023-04-07T09:49:54.928Z,98310.84
2023-04-07T09:52:51.521Z,98312.53
2023-04-07T09:55:39.575Z,98311.34
2023-04-07T09:58:24.922Z,98290.41
2023-04-07T10:01:10.799Z,98313.00
2023-04-07T10:03:57.357Z,98301.09
2023-04-07T10:06:43.701Z,98246.56
2023-04-07T10:09:30.122Z,98303.81
2023-04-07T10:12:15.656Z,98307.56
2023-04-07T10:15:01.954Z,98305.13
2023-04-07T10:17:48.213Z,98312.53
2023-04-07T10:20:34.202Z,98321.13
2023-04-07T10:23:25.093Z,98317.03
2023-04-07T10:26:11.751Z,98314.13
2023-04-07T10:29:04.327Z,98306.59
2023-04-07T10:31:50.194Z,98258.25
2023-04-07T10:34:50.476Z,98311.31
2023-04-07T10:37:35.851Z,98309.88
2023-04-07T10:40:21.101Z,98310.81
2023-04-07T10:43:07.306Z,98319.41
2023-04-07T10:45:53.712Z,98309.34
2023-04-07T10:48:39.135Z,98304.00
2023-04-07T10:51:24.236Z,98308.16
2023-04-07T10:54:20.591Z,98306.81
2023-04-07T10:57:13.588Z,98305.47
2023-04-07T11:00:10.968Z,98312.69
2023-04-07T11:02:56.598Z,98309.53
2023-04-07T11:05:42.876Z,98306.41
2023-04-07T11:08:36.382Z,98312.56
2023-04-07T11:11:36.554Z,98313.78
2023-04-07T11:14:29.339Z,98308.50
2023-04-07T11:17:15.270Z,98306.44
2023-04-07T11:20:00.723Z,98296.81
2023-04-07T11:23:00.074Z,98285.22
2023-04-07T11:25:47.462Z,98308.50
2023-04-07T11:28:33.299Z,98302.44
2023-04-07T11:31:36.818Z,98305.31
2023-04-07T11:34:22.281Z,98303.28
2023-04-07T11:37:24.864Z,98303.69
2023-04-07T11:40:10.811Z,98305.09
2023-04-07T11:42:55.966Z,98304.09
2023-04-07T11:45:41.210Z,98297.75
2023-04-07T11:48:27.826Z,98300.41
2023-04-07T11:51:21.999Z,98304.66
2023-04-07T11:54:07.453Z,98308.97
2023-04-07T11:56:52.855Z,98301.41
2023-04-07T11:59:38.292Z,98272.47
2023-04-07T12:02:36.574Z,98281.09
2023-04-07T12:05:22.098Z,98302.88
2023-04-07T12:08:07.722Z,98293.09
2023-04-07T12:11:03.639Z,98302.47
2023-04-07T12:13:48.979Z,98247.81
2023-04-07T12:16:38.509Z,98305.09
2023-04-07T12:19:27.588Z,98297.56
2023-04-07T12:22:12.927Z,98212.44
2023-04-07T12:24:58.396Z,98303.44
2023-04-07T12:27:44.043Z,98301.03
2023-04-07T12:30:29.161Z,98297.97
2023-04-07T12:33:14.631Z,98297.53
2023-04-07T12:36:00.312Z,98295.91
2023-04-07T12:38:45.650Z,98306.31
2023-04-07T12:41:31.044Z,98309.78
2023-04-07T12:44:16.308Z,98295.72
2023-04-07T12:47:01.483Z,98301.00
2023-04-07T12:49:48.555Z,98303.69
2023-04-07T12:52:35.020Z,98304.47
2023-04-07T12:55:20.526Z,98290.78
2023-04-07T12:58:07.555Z,98293.22
2023-04-07T13:00:53.201Z,98292.81
2023-04-07T13:03:38.670Z,98298.50
2023-04-07T13:06:24.267Z,98297.09
2023-04-07T13:09:09.779Z,98289.75
2023-04-07T13:11:54.998Z,98287.69
2023-04-07T13:14:53.079Z,98289.81
2023-04-07T13:17:42.663Z,98290.25
2023-04-07T13:20:28.067Z,98286.16
2023-04-07T13:23:13.495Z,98275.97
2023-04-07T13:25:58.843Z,98283.28
2023-04-07T13:28:43.982Z,98285.53
2023-04-07T13:31:29.290Z,98279.22
2023-04-07T13:34:15.040Z,98278.00
2023-04-07T13:37:02.261Z,98287.38
2023-04-07T13:39:47.411Z,98280.66
2023-04-07T13:42:32.621Z,98262.94
2023-04-07T13:45:18.004Z,98277.34
2023-04-07T13:48:03.529Z,98280.38
2023-04-07T13:50:48.863Z,98272.38
2023-04-07T13:53:34.109Z,98270.59
2023-04-07T13:56:19.504Z,98279.16
2023-04-07T13:59:08.106Z,98213.59
2023-04-07T14:01:53.562Z,98277.97
2023-04-07T14:04:39.037Z,98283.66
2023-04-07T14:07:24.311Z,98273.50
2023-04-07T14:10:10.851Z,98265.56
2023-04-07T14:12:56.186Z,98240.31
2023-04-07T14:15:41.681Z,98284.91
2023-04-07T14:18:27.031Z,98283.09
2023-04-07T14:21:12.748Z,98282.88
2023-04-07T14:23:57.933Z,98285.31
2023-04-07T14:26:44.439Z,98286.56
2023-04-07T14:29:29.742Z,98279.97
2023-04-07T14:32:16.263Z,98277.53
2023-04-07T14:35:01.524Z,98277.91
2023-04-07T14:37:46.725Z,98270.94
2023-04-07T14:40:31.889Z,98282.81
2023-04-07T14:43:17.507Z,98256.09
2023-04-07T14:46:02.545Z,98278.84
2023-04-07T14:48:48.016Z,98279.03
2023-04-07T14:51:33.264Z,98214.03
2023-04-07T14:54:18.814Z,98275.16
2023-04-07T14:57:05.450Z,98264.19
2023-04-07T14:59:50.601Z,98276.38
2023-04-07T15:02:36.314Z,98274.31
2023-04-07T15:05:21.889Z,98281.50
2023-04-07T15:08:06.925Z,98274.03
2023-04-07T15:10:52.604Z,98281.69
2023-04-07T15:13:37.753Z,98290.22
2023-04-07T15:16:22.986Z,98286.75
2023-04-07T15:19:08.253Z,98284.72
2023-04-07T15:25:02.683Z,98295.94
2023-04-07T15:27:48.850Z,98288.19
2023-04-07T15:30:35.917Z,98292.44
2023-04-07T15:33:22.739Z,98290.63
2023-04-07T15:36:08.929Z,98303.81
2023-04-07T15:38:53.937Z,98294.06
2023-04-07T15:41:39.111Z,98303.22
2023-04-07T15:44:24.199Z,98303.56
2023-04-07T15:47:09.716Z,98294.44
2023-04-07T15:49:55.132Z,98306.84
2023-04-07T15:52:40.397Z,98311.16
2023-04-07T15:55:25.493Z,98306.22
2023-04-07T15:58:11.251Z,98311.31
2023-04-07T16:00:56.771Z,98306.84
2023-04-07T16:03:42.290Z,98310.50
2023-04-07T16:06:27.753Z,98320.22
2023-04-07T16:09:13.271Z,98314.47
2023-04-07T16:11:58.609Z,98317.22
2023-04-07T16:14:44.884Z,98309.03
2023-04-07T16:17:30.374Z,98331.34
2023-04-07T16:20:15.804Z,98337.22
2023-04-07T16:23:01.488Z,98315.81
2023-04-07T16:25:46.598Z,98341.06
2023-04-07T16:28:31.682Z,98337.09
2023-04-07T16:31:17.056Z,98342.69
2023-04-07T16:34:02.193Z,98339.41
2023-04-07T16:36:48.026Z,98313.47
2023-04-07T16:39:33.277Z,98318.75
2023-04-07T16:42:18.737Z,98355.09
2023-04-07T16:45:04.926Z,98357.13
2023-04-07T16:47:50.138Z,98360.63
2023-04-07T16:50:41.770Z,98364.06
2023-04-07T16:53:27.338Z,98367.59
2023-04-07T16:56:23.754Z,98364.16
2023-04-07T16:59:09.302Z,98367.56
2023-04-07T17:01:54.583Z,98385.28
2023-04-07T17:04:40.557Z,98347.44
2023-04-07T17:07:26.124Z,98380.78
2023-04-07T17:10:11.815Z,98383.59
2023-04-07T17:12:57.154Z,98380.63
2023-04-07T17:15:42.585Z,98391.88
2023-04-07T17:18:27.849Z,98382.66
2023-04-07T17:21:13.535Z,98406.25
2023-04-07T17:23:58.708Z,98405.44
2023-04-07T17:26:45.671Z,98411.19
2023-04-07T17:29:30.910Z,98415.84
2023-04-07T17:32:16.345Z,98419.00
2023-04-07T17:35:01.666Z,98421.91
2023-04-07T17:37:47.096Z,98423.81
2023-04-07T17:40:32.720Z,98430.31
2023-04-07T17:43:18.337Z,98441.06
2023-04-07T17:46:04.100Z,98444.09
2023-04-07T17:48:49.887Z,98440.81
2023-04-07T17:51:35.224Z,98426.44
2023-04-07T17:54:20.790Z,98445.56
2023-04-07T17:57:06.204Z,98447.38
2023-04-07T17:59:51.467Z,98436.56
2023-04-07T18:02:37.141Z,98409.34
2023-04-07T18:05:22.947Z,98462.59
2023-04-07T18:08:08.042Z,98462.59
2023-04-07T18:10:53.522Z,98442.75
2023-04-07T18:13:38.711Z,98463.00
2023-04-07T18:16:24.045Z,98477.53
2023-04-07T18:19:09.586Z,98478.19
2023-04-07T18:21:54.921Z,98458.00
2023-04-07T18:24:40.380Z,98491.38
2023-04-07T18:27:25.825Z,98488.31
2023-04-07T18:30:11.149Z,98496.00
2023-04-07T18:32:56.987Z,98405.66
2023-04-07T18:35:42.252Z,98501.91
2023-04-07T18:38:27.722Z,98511.16
2023-04-07T18:41:13.150Z,98510.84
2023-04-07T18:43:58.941Z,98516.28
2023-04-07T18:46:44.414Z,98444.69
2023-04-07T18:49:30.037Z,98528.88
2023-04-07T18:52:15.358Z,98523.88
2023-04-07T18:55:00.391Z,98531.72
2023-04-07T18:57:45.548Z,98537.00
2023-04-07T19:00:30.831Z,98534.53
2023-04-07T19:03:16.458Z,98536.38
2023-04-07T19:06:02.920Z,98536.06
2023-04-07T19:08:48.170Z,98545.66
2023-04-07T19:11:33.706Z,98551.59
2023-04-07T19:14:18.998Z,98542.94
2023-04-07T19:17:04.575Z,98548.00
2023-04-07T19:19:49.998Z,98549.66
2023-04-07T19:22:35.157Z,98555.56
2023-04-07T19:25:21.365Z,98553.44
2023-04-07T19:28:06.833Z,98573.97
2023-04-07T19:30:52.121Z,98561.81
2023-04-07T19:33:39.173Z,98574.47
2023-04-07T19:36:24.812Z,98580.38
2023-04-07T19:39:10.654Z,98577.91
2023-04-07T19:41:56.216Z,98585.94
2023-04-07T19:44:41.687Z,98528.75
2023-04-07T19:47:26.945Z,98581.44
2023-04-07T19:50:12.440Z,98531.38
2023-04-07T19:52:57.808Z,98594.72
2023-04-07T19:55:43.733Z,98598.00
2023-04-07T19:58:28.977Z,98596.47
2023-04-07T20:01:20.447Z,98597.94
2023-04-07T20:04:05.729Z,98601.06
2023-04-07T20:06:51.229Z,98588.41
2023-04-07T20:09:36.386Z,98604.28
2023-04-07T20:12:21.589Z,98607.06
2023-04-07T20:15:07.508Z,98602.19
2023-04-07T20:17:53.543Z,98606.44
2023-04-07T20:20:38.913Z,98592.19
2023-04-07T20:23:24.273Z,98613.19
2023-04-07T20:26:10.356Z,98607.34
2023-04-07T20:28:57.180Z,98611.66
2023-04-07T20:31:43.635Z,98617.59
2023-04-07T20:34:31.322Z,98628.53
2023-04-07T20:37:16.388Z,98602.19
2023-04-07T20:40:02.475Z,98604.03
2023-04-07T20:42:47.610Z,98620.94
2023-04-07T20:45:33.505Z,98619.53
2023-04-07T20:48:20.024Z,98630.00
2023-04-07T20:51:05.517Z,98628.94
2023-04-07T20:53:51.087Z,98624.28
2023-04-07T20:56:38.852Z,98639.91
2023-04-07T20:59:25.245Z,98610.78
2023-04-07T21:02:13.411Z,98637.59
2023-04-07T21:04:59.092Z,98644.91
2023-04-07T21:07:45.677Z,98637.19
2023-04-07T21:10:31.285Z,98638.06
2023-04-07T21:13:18.200Z,98644.84
2023-04-07T21:16:05.902Z,98633.97
2023-04-07T21:18:53.738Z,98663.00
2023-04-07T21:21:52.501Z,98659.72
2023-04-07T21:24:37.908Z,98653.06
2023-04-07T21:27:23.184Z,98653.81
2023-04-07T21:30:09.105Z,98556.06
2023-04-07T21:32:54.685Z,98655.88
2023-04-07T21:35:40.295Z,98642.72
2023-04-07T21:38:25.262Z,98641.38
2023-04-07T21:41:10.811Z,98638.78
2023-04-07T21:43:56.235Z,98649.88
2023-04-07T21:46:41.717Z,98656.38
2023-04-07T21:49:27.094Z,98656.25
2023-04-07T21:52:12.222Z,98655.28
2023-04-07T21:54:57.335Z,98654.16
2023-04-07T21:57:42.667Z,98652.81
2023-04-07T22:00:28.162Z,98656.09
2023-04-07T22:03:13.738Z,98607.75
2023-04-07T22:06:00.329Z,98650.72
2023-04-07T22:08:54.872Z,98660.91
2023-04-07T22:11:45.916Z,98668.09
2023-04-07T22:14:31.487Z,98664.88
2023-04-07T22:17:16.942Z,98678.19
2023-04-07T22:20:04.881Z,98591.56
2023-04-07T22:22:50.492Z,98678.53
2023-04-07T22:25:36.624Z,98675.16
2023-04-07T22:28:21.986Z,98671.78
2023-04-07T22:31:07.665Z,98677.53
2023-04-07T22:33:53.007Z,98678.47
2023-04-07T22:36:38.527Z,98681.50
2023-04-07T22:39:24.404Z,98688.50
2023-04-07T22:42:10.130Z,98685.19
2023-04-07T22:44:55.396Z,98689.41
2023-04-07T22:47:40.872Z,98695.34
2023-04-07T22:50:26.438Z,98690.50
2023-04-07T22:53:11.890Z,98696.72
2023-04-07T22:55:57.171Z,98686.09
2023-04-07T22:58:42.599Z,98689.31
2023-04-07T23:01:27.869Z,98677.97
2023-04-07T23:04:13.122Z,98696.13
2023-04-07T23:06:58.545Z,98701.88
2023-04-07T23:09:44.206Z,98700.19
2023-04-07T23:12:29.741Z,98702.59
2023-04-07T23:15:15.288Z,98703.13
2023-04-07T23:18:01.837Z,98706.41
2023-04-07T23:20:51.299Z,98707.53
2023-04-07T23:23:38.129Z,98708.97
2023-04-07T23:26:23.578Z,98710.66
2023-04-07T23:29:08.683Z,98697.22
2023-04-07T23:31:54.130Z,98708.75
2023-04-07T23:34:40.306Z,98686.47
2023-04-07T23:37:27.667Z,98707.91
2023-04-07T23:40:13.433Z,98711.00
2023-04-07T23:43:00.718Z,98705.81
2023-04-07T23:45:45.834Z,98706.91
2023-04-07T23:48:32.095Z,98706.66
2023-04-07T23:51:17.426Z,98714.78
2023-04-07T23:54:02.726Z,98701.06
2023-04-07T23:56:48.853Z,98705.00
2023-04-07T23:59:34.211Z,98707.69
